createdAt,value
2023-11-11T00:00:21.836Z,7.60
2023-11-11T00:03:10.143Z,7.70
2023-11-11T00:05:38.685Z,8.50
2023-11-11T00:08:07.732Z,10.40
2023-11-11T00:10:36.078Z,6.40
2023-11-11T00:13:04.632Z,6.60
2023-11-11T00:15:35.166Z,6.30
2023-11-11T00:18:03.815Z,7.30
2023-11-11T00:20:32.110Z,6.00
2023-11-11T00:23:03.290Z,7.90
2023-11-11T00:25:32.681Z,8.10
2023-11-11T00:28:00.847Z,6.60
2023-11-11T00:30:32.261Z,6.50
2023-11-11T00:33:00.657Z,7.80
2023-11-11T00:35:29.312Z,6.50
2023-11-11T00:37:57.471Z,6.90
2023-11-11T00:40:25.685Z,7.20
2023-11-11T00:42:55.031Z,5.10
2023-11-11T00:45:26.595Z,8.00
2023-11-11T00:47:54.988Z,6.70
2023-11-11T00:50:23.302Z,7.80
2023-11-11T00:52:51.491Z,5.30
2023-11-11T00:55:19.921Z,6.10
2023-11-11T00:57:48.762Z,6.10
2023-11-11T01:00:20.974Z,7.00
2023-11-11T01:02:53.866Z,6.90
2023-11-11T01:05:22.392Z,5.30
2023-11-11T01:07:51.284Z,6.50
2023-11-11T01:10:22.857Z,6.00
2023-11-11T01:12:52.557Z,4.80
2023-11-11T01:15:21.754Z,5.30
2023-11-11T01:17:50.130Z,5.30
2023-11-11T01:20:18.459Z,5.90
2023-11-11T01:22:47.995Z,5.90
2023-11-11T01:25:16.264Z,4.70
2023-11-11T01:27:44.576Z,5.10
2023-11-11T01:30:14.256Z,3.90
2023-11-11T01:32:42.553Z,5.40
2023-11-11T01:35:12.279Z,4.60
2023-11-11T01:37:40.523Z,5.70
2023-11-11T01:40:09.307Z,6.40
2023-11-11T01:42:37.589Z,5.80
2023-11-11T01:45:06.439Z,5.70
2023-11-11T01:47:35.080Z,5.10
2023-11-11T01:50:04.373Z,5.10
2023-11-11T01:52:32.862Z,7.80
2023-11-11T01:55:03.088Z,4.60
2023-11-11T01:57:31.343Z,5.70
2023-11-11T02:00:07.012Z,4.40
2023-11-11T02:02:36.108Z,5.40
2023-11-11T02:05:05.039Z,4.70
2023-11-11T02:07:33.912Z,6.40
2023-11-11T02:10:04.334Z,5.60
2023-11-11T02:12:33.133Z,5.80
2023-11-11T02:15:03.538Z,5.80
2023-11-11T02:17:31.818Z,6.30
2023-11-11T02:20:02.027Z,5.20
2023-11-11T02:22:30.376Z,5.40
2023-11-11T02:25:02.078Z,4.10
2023-11-11T02:27:32.638Z,4.30
2023-11-11T02:30:03.453Z,8.30
2023-11-11T02:32:32.417Z,5.60
2023-11-11T02:35:00.809Z,4.20
2023-11-11T02:37:29.586Z,5.80
2023-11-11T02:39:57.797Z,5.90
2023-11-11T02:42:25.974Z,6.30
2023-11-11T02:44:54.638Z,6.60
2023-11-11T02:47:22.847Z,5.10
2023-11-11T02:49:51.001Z,4.60
2023-11-11T02:52:19.150Z,6.60
2023-11-11T02:54:47.348Z,4.70
2023-11-11T02:57:15.520Z,5.10
2023-11-11T02:59:44.649Z,4.50
2023-11-11T03:02:12.918Z,4.50
2023-11-11T03:04:41.341Z,5.30
2023-11-11T03:07:10.447Z,5.20
2023-11-11T03:09:41.940Z,4.60
2023-11-11T03:12:12.956Z,4.80
2023-11-11T03:14:41.998Z,5.40
2023-11-11T03:17:10.308Z,4.70
2023-11-11T03:19:42.072Z,5.70
2023-11-11T03:22:11.146Z,5.10
2023-11-11T03:24:39.359Z,4.80
2023-11-11T03:27:07.597Z,4.70
2023-11-11T03:29:36.393Z,4.80
2023-11-11T03:32:04.862Z,5.00
2023-11-11T03:34:33.045Z,5.60
2023-11-11T03:37:02.941Z,4.30
2023-11-11T03:39:34.355Z,3.90
2023-11-11T03:42:02.520Z,5.00
2023-11-11T03:44:30.655Z,3.70
2023-11-11T03:46:58.811Z,3.90
2023-11-11T03:49:27.004Z,3.20
2023-11-11T03:51:55.187Z,6.20
2023-11-11T03:54:23.502Z,4.10
2023-11-11T03:56:51.858Z,5.10
2023-11-11T03:59:20.424Z,6.00
2023-11-11T04:01:48.674Z,3.60
2023-11-11T04:04:16.922Z,2.40
2023-11-11T04:06:45.290Z,4.50
2023-11-11T04:09:14.546Z,7.70
2023-11-11T04:11:43.408Z,4.80
2023-11-11T04:14:11.944Z,5.70
2023-11-11T04:16:40.191Z,4.10
2023-11-11T04:19:09.648Z,6.50
2023-11-11T04:21:37.921Z,4.30
2023-11-11T04:24:06.810Z,3.50
2023-11-11T04:26:35.045Z,4.70
2023-11-11T04:29:03.247Z,5.60
2023-11-11T04:31:31.428Z,4.50
2023-11-11T04:34:00.102Z,4.00
2023-11-11T04:36:28.421Z,4.40
2023-11-11T04:38:56.592Z,3.60
2023-11-11T04:41:25.218Z,3.20
2023-11-11T04:43:53.324Z,4.50
2023-11-11T04:46:21.562Z,5.40
2023-11-11T04:48:49.821Z,4.60
2023-11-11T04:51:18.062Z,4.00
2023-11-11T04:53:46.232Z,3.80
2023-11-11T04:56:14.369Z,3.00
2023-11-11T04:58:42.517Z,4.80
2023-11-11T05:01:10.996Z,3.40
2023-11-11T05:03:41.278Z,4.40
2023-11-11T05:06:10.160Z,3.80
2023-11-11T05:08:38.325Z,4.00
2023-11-11T05:11:06.561Z,2.10
2023-11-11T05:13:36.930Z,3.60
2023-11-11T05:16:15.606Z,5.10
2023-11-11T05:18:48.994Z,3.90
2023-11-11T05:21:18.765Z,4.00
2023-11-11T05:23:47.826Z,3.90
2023-11-11T05:26:16.046Z,4.20
2023-11-11T05:28:44.243Z,3.80
2023-11-11T05:31:12.454Z,7.60
2023-11-11T05:33:40.794Z,4.00
2023-11-11T05:36:10.448Z,4.00
2023-11-11T05:38:38.626Z,3.30
2023-11-11T05:41:06.783Z,3.40
2023-11-11T05:43:35.238Z,3.70
2023-11-11T05:46:03.548Z,4.00
2023-11-11T05:48:31.727Z,3.50
2023-11-11T05:51:00.115Z,6.10
2023-11-11T05:53:28.301Z,4.90
2023-11-11T05:55:56.497Z,4.40
2023-11-11T05:58:24.685Z,2.30
2023-11-11T06:00:53.525Z,3.30
2023-11-11T06:03:22.035Z,4.60
2023-11-11T06:05:50.767Z,3.70
2023-11-11T06:08:20.824Z,2.80
2023-11-11T06:10:49.685Z,3.40
2023-11-11T06:13:17.867Z,2.50
2023-11-11T06:15:46.205Z,3.00
2023-11-11T06:18:14.544Z,3.80
2023-11-11T06:20:42.930Z,4.80
2023-11-11T06:25:42.352Z,2.90
2023-11-11T06:28:11.838Z,3.10
2023-11-11T06:30:40.146Z,2.90
2023-11-11T06:33:08.514Z,4.10
2023-11-11T06:35:36.778Z,4.80
2023-11-11T06:38:04.922Z,3.60
2023-11-11T06:40:34.429Z,3.70
2023-11-11T06:43:04.436Z,5.00
2023-11-11T06:45:33.971Z,2.80
2023-11-11T06:48:02.266Z,3.90
2023-11-11T06:50:31.500Z,3.20
2023-11-11T06:52:59.739Z,3.30
2023-11-11T06:55:30.526Z,2.40
2023-11-11T06:57:58.722Z,2.60
2023-11-11T07:00:27.310Z,4.90
2023-11-11T07:02:56.658Z,2.90
2023-11-11T07:05:25.003Z,3.80
2023-11-11T07:07:53.965Z,3.10
2023-11-11T07:10:25.151Z,2.30
2023-11-11T07:12:53.414Z,3.30
2023-11-11T07:15:22.362Z,3.50
2023-11-11T07:17:50.726Z,2.80
2023-11-11T07:20:20.646Z,3.50
2023-11-11T07:22:50.289Z,3.60
2023-11-11T07:25:19.786Z,3.20
2023-11-11T07:27:47.978Z,3.70
2023-11-11T07:30:17.122Z,4.30
2023-11-11T07:32:56.685Z,4.40
2023-11-11T07:35:28.932Z,2.30
2023-11-11T07:37:57.294Z,3.00
2023-11-11T07:40:26.955Z,1.90
2023-11-11T07:42:57.290Z,3.20
2023-11-11T07:45:26.283Z,3.40
2023-11-11T07:47:54.690Z,3.90
2023-11-11T07:50:23.450Z,4.00
2023-11-11T07:52:52.426Z,2.60
2023-11-11T07:55:20.594Z,3.60
2023-11-11T08:00:21.117Z,3.80
2023-11-11T08:02:49.663Z,2.60
2023-11-11T08:05:18.333Z,2.20
2023-11-11T08:07:46.731Z,3.30
2023-11-11T08:10:15.190Z,2.70
2023-11-11T08:12:43.385Z,2.80
2023-11-11T08:15:12.245Z,4.50
2023-11-11T08:17:40.506Z,2.30
2023-11-11T08:20:12.975Z,1.90
2023-11-11T08:22:41.981Z,2.20
2023-11-11T08:25:14.998Z,3.50
2023-11-11T08:27:46.481Z,3.00
2023-11-11T08:30:14.891Z,4.00
2023-11-11T08:32:43.680Z,2.20
2023-11-11T08:35:17.451Z,1.50
2023-11-11T08:37:48.527Z,2.30
2023-11-11T08:40:18.658Z,4.10
2023-11-11T08:42:47.490Z,2.60
2023-11-11T08:45:15.774Z,2.70
2023-11-11T08:47:44.326Z,3.40
2023-11-11T08:50:13.450Z,2.70
2023-11-11T08:52:45.092Z,2.70
2023-11-11T08:55:13.581Z,2.40
2023-11-11T08:57:42.186Z,2.90
2023-11-11T09:00:13.656Z,1.80
2023-11-11T09:02:41.914Z,2.40
2023-11-11T09:05:11.177Z,2.10
2023-11-11T09:07:39.609Z,2.70
2023-11-11T09:10:08.476Z,2.50
2023-11-11T09:12:37.927Z,2.80
2023-11-11T09:15:10.436Z,2.20
2023-11-11T09:17:42.409Z,3.00
2023-11-11T09:20:11.239Z,3.30
2023-11-11T09:22:39.436Z,2.30
2023-11-11T09:25:08.919Z,2.30
2023-11-11T09:27:37.327Z,3.60
2023-11-11T09:30:06.880Z,3.00
2023-11-11T09:32:35.123Z,2.00
2023-11-11T09:35:04.588Z,2.40
2023-11-11T09:37:33.775Z,3.20
2023-11-11T09:40:08.093Z,3.10
2023-11-11T09:42:38.503Z,2.70
2023-11-11T09:47:41.891Z,1.40
2023-11-11T09:50:13.862Z,2.60
2023-11-11T09:52:45.039Z,1.90
2023-11-11T09:55:16.106Z,2.80
2023-11-11T09:57:47.800Z,2.00
2023-11-11T10:00:17.931Z,2.10
2023-11-11T10:02:46.770Z,2.30
2023-11-11T10:05:16.328Z,1.80
2023-11-11T10:07:44.609Z,3.00
2023-11-11T10:10:13.694Z,2.50
2023-11-11T10:12:42.143Z,2.50
2023-11-11T10:15:11.829Z,2.70
2023-11-11T10:17:41.418Z,1.50
2023-11-11T10:20:17.084Z,1.30
2023-11-11T10:22:47.634Z,3.30
2023-11-11T10:25:20.847Z,2.00
2023-11-11T10:30:21.076Z,1.80
2023-11-11T10:32:52.555Z,2.00
2023-11-11T10:35:23.194Z,2.40
2023-11-11T10:37:52.456Z,2.40
2023-11-11T10:40:21.723Z,3.30
2023-11-11T10:42:51.262Z,2.30
2023-11-11T10:45:19.666Z,2.60
2023-11-11T10:47:49.042Z,1.40
2023-11-11T10:50:18.649Z,2.90
2023-11-11T10:52:48.663Z,2.70
2023-11-11T10:55:16.970Z,1.60
2023-11-11T10:57:47.254Z,1.80
2023-11-11T11:00:22.596Z,2.50
2023-11-11T11:02:54.331Z,1.40
2023-11-11T11:05:50.389Z,1.30
2023-11-11T11:08:31.225Z,2.40
2023-11-11T11:11:08.846Z,1.60
2023-11-11T11:13:39.637Z,2.40
2023-11-11T11:16:09.565Z,1.60
2023-11-11T11:18:42.833Z,2.30
2023-11-11T11:21:12.506Z,3.40
2023-11-11T11:23:40.696Z,2.80
2023-11-11T11:26:12.081Z,2.30
2023-11-11T11:28:40.340Z,1.20
2023-11-11T11:31:08.530Z,2.60
2023-11-11T11:33:40.665Z,2.20
2023-11-11T11:36:10.826Z,2.20
2023-11-11T11:38:42.170Z,1.40
2023-11-11T11:41:12.463Z,1.70
2023-11-11T11:43:43.270Z,1.60
2023-11-11T11:46:12.173Z,2.10
2023-11-11T11:48:42.483Z,2.40
2023-11-11T11:51:13.792Z,2.20
2023-11-11T11:53:44.085Z,1.90
2023-11-11T11:56:27.981Z,2.10
2023-11-11T11:58:57.020Z,2.10
2023-11-11T12:01:27.922Z,1.80
2023-11-11T12:03:57.828Z,2.40
2023-11-11T12:06:28.540Z,2.30
2023-11-11T12:08:59.064Z,1.80
2023-11-11T12:11:35.153Z,3.60
2023-11-11T12:14:12.010Z,2.70
2023-11-11T12:16:48.821Z,1.50
2023-11-11T12:19:23.015Z,1.40
2023-11-11T12:21:52.367Z,2.60
2023-11-11T12:24:28.123Z,1.20
2023-11-11T12:27:02.891Z,1.90
2023-11-11T12:29:39.383Z,1.30
2023-11-11T12:32:12.413Z,2.40
2023-11-11T12:34:43.312Z,3.50
2023-11-11T12:37:12.158Z,1.50
2023-11-11T12:39:54.338Z,1.60
2023-11-11T12:42:26.848Z,1.50
2023-11-11T12:44:55.322Z,1.70
2023-11-11T12:47:23.638Z,2.40
2023-11-11T12:49:55.910Z,2.00
2023-11-11T12:52:25.050Z,2.00
2023-11-11T12:54:53.375Z,1.90
2023-11-11T12:57:29.670Z,1.00
2023-11-11T12:59:58.866Z,3.30
2023-11-11T13:02:27.317Z,1.70
2023-11-11T13:04:55.785Z,1.40
2023-11-11T13:07:29.789Z,1.40
2023-11-11T13:09:58.347Z,1.20
2023-11-11T13:12:27.789Z,2.30
2023-11-11T13:15:01.950Z,1.90
2023-11-11T13:17:30.338Z,2.20
2023-11-11T13:20:01.192Z,2.00
2023-11-11T13:22:30.759Z,1.40
2023-11-11T13:25:02.041Z,1.70
2023-11-11T13:27:31.707Z,1.10
2023-11-11T13:29:59.871Z,1.20
2023-11-11T13:32:28.051Z,0.80
2023-11-11T13:34:57.838Z,1.40
2023-11-11T13:37:29.826Z,2.00
2023-11-11T13:40:01.783Z,1.10
2023-11-11T13:42:31.679Z,1.90
2023-11-11T13:45:00.505Z,1.80
2023-11-11T13:47:30.389Z,1.50
2023-11-11T13:50:00.549Z,1.90
2023-11-11T13:52:29.273Z,2.00
2023-11-11T13:54:57.916Z,1.10
2023-11-11T13:57:26.137Z,1.70
2023-11-11T13:59:54.308Z,1.40
2023-11-11T14:02:22.644Z,2.30
2023-11-11T14:04:52.408Z,2.20
2023-11-11T14:07:20.736Z,3.30
2023-11-11T14:09:49.202Z,1.50
2023-11-11T14:12:18.572Z,2.00
2023-11-11T14:14:50.543Z,1.20
2023-11-11T14:17:18.974Z,1.50
2023-11-11T14:19:47.683Z,1.60
2023-11-11T14:22:15.951Z,1.80
2023-11-11T14:24:44.121Z,0.90
2023-11-11T14:27:13.250Z,1.10
2023-11-11T14:29:42.250Z,1.40
2023-11-11T14:32:10.594Z,1.50
2023-11-11T14:34:38.918Z,1.90
2023-11-11T14:37:10.759Z,1.60
2023-11-11T14:39:38.961Z,1.60
2023-11-11T14:42:07.146Z,1.20
2023-11-11T14:44:35.336Z,2.50
2023-11-11T14:47:03.742Z,1.90
2023-11-11T14:49:32.152Z,1.40
2023-11-11T14:52:01.431Z,2.70
2023-11-11T14:54:31.413Z,1.70
2023-11-11T14:57:00.083Z,1.40
2023-11-11T14:59:29.964Z,1.40
2023-11-11T15:01:58.728Z,2.40
2023-11-11T15:04:27.303Z,2.30
2023-11-11T15:06:56.545Z,1.00
2023-11-11T15:09:25.257Z,1.70
2023-11-11T15:11:53.391Z,1.40
2023-11-11T15:14:21.607Z,1.20
2023-11-11T15:16:49.854Z,1.60
2023-11-11T15:19:17.999Z,2.40
2023-11-11T15:21:50.384Z,2.30
2023-11-11T15:24:19.260Z,1.40
2023-11-11T15:26:47.955Z,2.10
2023-11-11T15:29:16.095Z,1.30
2023-11-11T15:31:44.365Z,2.20
2023-11-11T15:34:13.477Z,1.80
2023-11-11T15:36:41.707Z,1.30
2023-11-11T15:39:23.573Z,1.70
2023-11-11T15:41:52.599Z,2.20
2023-11-11T15:44:20.869Z,1.70
2023-11-11T15:46:51.485Z,1.10
2023-11-11T15:49:21.769Z,1.80
2023-11-11T15:51:52.034Z,1.30
2023-11-11T15:54:20.259Z,0.90
2023-11-11T15:56:51.122Z,1.10
2023-11-11T15:59:19.712Z,1.20
2023-11-11T16:01:47.949Z,1.00
2023-11-11T16:04:18.237Z,2.00
2023-11-11T16:06:47.020Z,1.10
2023-11-11T16:09:17.882Z,1.20
2023-11-11T16:11:46.277Z,1.10
2023-11-11T16:14:14.466Z,2.10
2023-11-11T16:16:42.767Z,1.50
2023-11-11T16:19:11.265Z,0.80
2023-11-11T16:21:39.370Z,1.10
2023-11-11T16:24:20.633Z,0.80
2023-11-11T16:26:55.974Z,1.30
2023-11-11T16:29:24.229Z,1.00
2023-11-11T16:31:52.433Z,2.50
2023-11-11T16:34:22.375Z,1.10
2023-11-11T16:36:50.608Z,1.00
2023-11-11T16:39:20.505Z,1.10
2023-11-11T16:41:52.391Z,1.20
2023-11-11T16:46:50.563Z,0.90
2023-11-11T16:49:18.898Z,1.40
2023-11-11T16:51:47.881Z,1.80
2023-11-11T16:54:15.988Z,1.40
2023-11-11T16:56:44.100Z,1.30
2023-11-11T16:59:13.256Z,1.60
2023-11-11T17:01:41.612Z,1.10
2023-11-11T17:04:10.605Z,1.50
2023-11-11T17:06:38.890Z,0.90
2023-11-11T17:09:12.506Z,1.20
2023-11-11T17:11:44.286Z,1.20
2023-11-11T17:14:13.057Z,1.30
2023-11-11T17:16:43.143Z,0.80
2023-11-11T17:19:12.141Z,2.20
2023-11-11T17:21:40.314Z,0.60
2023-11-11T17:24:12.029Z,0.80
2023-11-11T17:26:44.415Z,1.20
2023-11-11T17:29:13.419Z,0.70
2023-11-11T17:31:41.599Z,1.00
2023-11-11T17:34:09.822Z,2.30
2023-11-11T17:36:38.042Z,0.90
2023-11-11T17:39:06.582Z,0.90
2023-11-11T17:41:35.819Z,2.40
2023-11-11T17:44:04.944Z,1.00
2023-11-11T17:46:33.167Z,1.00
2023-11-11T17:49:01.642Z,0.90
2023-11-11T17:51:30.427Z,1.20
2023-11-11T17:53:59.307Z,1.60
2023-11-11T17:56:28.608Z,1.50
2023-11-11T17:58:56.853Z,0.80
2023-11-11T18:01:25.064Z,1.80
2023-11-11T18:03:53.317Z,1.80
2023-11-11T18:06:23.236Z,2.00
2023-11-11T18:08:51.480Z,0.70
2023-11-11T18:11:21.272Z,1.60
2023-11-11T18:13:49.617Z,1.20
2023-11-11T18:16:19.062Z,0.70
2023-11-11T18:18:47.702Z,1.20
2023-11-11T18:21:16.787Z,1.40
2023-11-11T18:23:47.843Z,1.40
2023-11-11T18:26:16.067Z,0.80
2023-11-11T18:28:45.441Z,1.20
2023-11-11T18:31:14.948Z,0.90
2023-11-11T18:33:43.250Z,1.70
2023-11-11T18:36:11.556Z,1.50
2023-11-11T18:38:40.178Z,1.40
2023-11-11T18:41:08.491Z,1.30
2023-11-11T18:43:37.465Z,1.60
2023-11-11T18:46:06.462Z,0.80
2023-11-11T18:48:34.826Z,1.50
2023-11-11T18:51:03.083Z,1.10
2023-11-11T18:53:31.461Z,1.20
2023-11-11T18:55:59.731Z,2.60
2023-11-11T18:58:27.977Z,0.70
2023-11-11T19:00:56.586Z,1.20
2023-11-11T19:03:25.087Z,0.90
2023-11-11T19:05:56.852Z,1.40
2023-11-11T19:08:24.996Z,1.20
2023-11-11T19:10:53.427Z,1.00
2023-11-11T19:13:21.705Z,1.00
2023-11-11T19:15:49.882Z,0.90
2023-11-11T19:18:18.055Z,1.10
2023-11-11T19:20:46.400Z,1.30
2023-11-11T19:23:14.656Z,1.00
2023-11-11T19:25:43.206Z,1.30
2023-11-11T19:28:11.453Z,1.10
2023-11-11T19:30:40.746Z,1.30
2023-11-11T19:33:09.315Z,1.60
2023-11-11T19:35:37.601Z,1.20
2023-11-11T19:38:05.810Z,1.00
2023-11-11T19:40:34.643Z,1.20
2023-11-11T19:43:02.851Z,1.10
2023-11-11T19:45:30.989Z,1.00
2023-11-11T19:47:59.299Z,1.10
2023-11-11T19:50:27.559Z,1.20
2023-11-11T19:52:55.706Z,1.50
2023-11-11T19:55:23.946Z,1.10
2023-11-11T19:57:52.183Z,1.40
2023-11-11T20:00:20.585Z,2.50
2023-11-11T20:02:48.770Z,1.10
2023-11-11T20:05:17.517Z,1.10
2023-11-11T20:07:46.072Z,1.70
2023-11-11T20:10:14.299Z,1.20
2023-11-11T20:12:42.540Z,1.10
2023-11-11T20:15:13.402Z,1.70
2023-11-11T20:17:42.050Z,1.10
2023-11-11T20:20:13.788Z,0.70
2023-11-11T20:22:42.763Z,1.90
2023-11-11T20:25:11.169Z,1.00
2023-11-11T20:27:40.486Z,1.10
2023-11-11T20:30:08.959Z,0.60
2023-11-11T20:32:37.511Z,1.10
2023-11-11T20:35:06.089Z,1.80
2023-11-11T20:37:36.932Z,0.90
2023-11-11T20:40:05.696Z,0.80
2023-11-11T20:42:38.065Z,1.90
2023-11-11T20:45:09.073Z,1.70
2023-11-11T20:47:40.893Z,0.90
2023-11-11T20:50:11.595Z,1.70
2023-11-11T20:52:40.137Z,1.30
2023-11-11T20:55:09.184Z,0.90
2023-11-11T20:57:37.944Z,1.20
2023-11-11T21:00:07.597Z,1.50
2023-11-11T21:02:36.511Z,1.20
2023-11-11T21:05:05.763Z,1.00
2023-11-11T21:07:40.179Z,0.70
2023-11-11T21:10:09.870Z,2.30
2023-11-11T21:12:38.221Z,1.90
2023-11-11T21:15:06.817Z,1.60
2023-11-11T21:17:36.968Z,1.10
2023-11-11T21:20:10.070Z,0.90
2023-11-11T21:22:39.040Z,1.10
2023-11-11T21:25:07.977Z,0.70
2023-11-11T21:27:36.163Z,1.10
2023-11-11T21:30:05.609Z,1.30
2023-11-11T21:32:33.987Z,0.90
2023-11-11T21:35:02.329Z,0.80
2023-11-11T21:37:31.050Z,1.50
2023-11-11T21:39:59.270Z,1.90
2023-11-11T21:42:28.256Z,1.20
2023-11-11T21:44:57.061Z,1.70
2023-11-11T21:47:25.381Z,0.90
2023-11-11T21:49:53.588Z,1.30
2023-11-11T21:52:21.756Z,1.00
2023-11-11T21:54:50.603Z,1.10
2023-11-11T21:57:18.831Z,1.60
2023-11-11T21:59:47.909Z,4.90
2023-11-11T22:02:16.199Z,1.40
2023-11-11T22:04:44.780Z,0.90
2023-11-11T22:07:13.075Z,1.00
2023-11-11T22:09:41.709Z,1.50
2023-11-11T22:12:09.983Z,1.10
2023-11-11T22:14:39.093Z,2.00
2023-11-11T22:17:07.676Z,1.20
2023-11-11T22:19:35.843Z,1.20
2023-11-11T22:22:03.977Z,1.50
2023-11-11T22:24:32.281Z,1.00
2023-11-11T22:27:00.497Z,1.20
2023-11-11T22:29:29.668Z,1.10
2023-11-11T22:31:59.249Z,1.30
2023-11-11T22:34:27.451Z,1.20
2023-11-11T22:36:55.635Z,0.90
2023-11-11T22:39:23.810Z,1.70
2023-11-11T22:41:52.021Z,1.20
2023-11-11T22:44:20.191Z,0.80
2023-11-11T22:46:50.405Z,1.30
2023-11-11T22:49:18.757Z,1.20
2023-11-11T22:51:53.252Z,1.00
2023-11-11T22:54:21.557Z,0.50
2023-11-11T22:56:49.737Z,2.00
2023-11-11T22:59:17.898Z,1.40
2023-11-11T23:01:46.216Z,1.10
2023-11-11T23:04:15.077Z,0.80
2023-11-11T23:06:43.734Z,1.20
2023-11-11T23:09:12.236Z,1.20
2023-11-11T23:11:40.424Z,1.10
2023-11-11T23:14:11.113Z,0.90
2023-11-11T23:16:39.670Z,0.80
2023-11-11T23:19:09.550Z,0.60
2023-11-11T23:21:38.591Z,0.80
2023-11-11T23:24:07.250Z,1.10
2023-11-11T23:26:35.412Z,0.60
2023-11-11T23:29:03.727Z,1.00
2023-11-11T23:31:31.927Z,1.00
2023-11-11T23:34:00.505Z,1.10
2023-11-11T23:36:28.827Z,0.80
2023-11-11T23:38:56.988Z,2.40
2023-11-11T23:41:25.223Z,1.00
2023-11-11T23:43:53.439Z,1.20
2023-11-11T23:46:21.673Z,1.20
2023-11-11T23:48:50.352Z,1.00
2023-11-11T23:51:18.557Z,1.80
2023-11-11T23:53:46.762Z,0.80
2023-11-11T23:56:15.482Z,1.10
2023-11-11T23:58:43.697Z,0.70
